createdAt,value
2023-05-18T00:02:21.581Z,3.20
2023-05-18T00:04:49.772Z,2.90
2023-05-18T00:07:17.868Z,3.10
2023-05-18T00:09:45.977Z,2.70
2023-05-18T00:12:13.877Z,3.20
2023-05-18T00:14:41.703Z,2.60
2023-05-18T00:17:09.476Z,3.80
2023-05-18T00:19:37.375Z,2.70
2023-05-18T00:22:07.899Z,3.30
2023-05-18T00:24:37.107Z,3.20
2023-05-18T00:27:05.205Z,2.80
2023-05-18T00:29:33.519Z,3.40
2023-05-18T00:32:01.540Z,3.00
2023-05-18T00:34:29.420Z,3.00
2023-05-18T00:36:57.189Z,2.80
2023-05-18T00:39:25.111Z,3.00
2023-05-18T00:41:52.998Z,2.70
2023-05-18T00:44:21.153Z,2.60
2023-05-18T00:46:50.339Z,2.70
2023-05-18T00:49:19.158Z,3.00
2023-05-18T00:51:47.474Z,3.00
2023-05-18T00:54:16.654Z,3.00
2023-05-18T00:56:46.757Z,3.40
2023-05-18T00:59:15.569Z,3.10
2023-05-18T01:01:44.754Z,3.00
2023-05-18T01:04:15.940Z,2.90
2023-05-18T01:06:43.977Z,2.90
2023-05-18T01:09:13.684Z,2.90
2023-05-18T01:12:04.544Z,2.80
2023-05-18T01:14:54.502Z,3.30
2023-05-18T01:18:05.379Z,2.90
2023-05-18T01:20:39.201Z,2.90
2023-05-18T01:23:22.298Z,2.80
2023-05-18T01:25:53.669Z,3.00
2023-05-18T01:28:26.530Z,3.40
2023-05-18T01:30:56.520Z,2.80
2023-05-18T01:33:25.252Z,3.20
2023-05-18T01:35:53.496Z,3.20
2023-05-18T01:38:24.918Z,2.90
2023-05-18T01:44:38.406Z,2.90
2023-05-18T01:47:16.616Z,2.90
2023-05-18T01:50:03.786Z,3.00
2023-05-18T01:52:44.685Z,3.10
2023-05-18T01:55:17.967Z,3.10
2023-05-18T01:57:48.892Z,3.00
2023-05-18T02:02:46.055Z,2.90
2023-05-18T02:05:14.620Z,2.90
2023-05-18T02:07:44.171Z,2.60
2023-05-18T02:10:12.705Z,3.40
2023-05-18T02:12:40.639Z,2.80
2023-05-18T02:15:10.583Z,3.10
2023-05-18T02:17:38.978Z,3.50
2023-05-18T02:20:08.245Z,3.70
2023-05-18T02:22:36.953Z,3.20
2023-05-18T02:25:05.770Z,3.60
2023-05-18T02:27:35.064Z,3.30
2023-05-18T02:30:08.811Z,3.00
2023-05-18T02:32:39.513Z,3.60
2023-05-18T02:35:09.115Z,3.20
2023-05-18T02:37:40.237Z,3.20
2023-05-18T02:40:13.528Z,3.20
2023-05-18T02:42:42.542Z,2.90
2023-05-18T02:45:11.723Z,3.70
2023-05-18T02:47:40.057Z,3.40
2023-05-18T02:50:08.416Z,3.50
2023-05-18T02:52:36.860Z,3.30
2023-05-18T02:55:06.345Z,3.10
2023-05-18T02:57:57.530Z,3.70
2023-05-18T03:00:35.461Z,3.40
2023-05-18T03:03:04.297Z,3.10
2023-05-18T03:05:32.409Z,3.20
2023-05-18T03:08:02.404Z,3.60
2023-05-18T03:10:30.671Z,3.50
2023-05-18T03:12:58.978Z,3.40
2023-05-18T03:15:27.182Z,3.60
2023-05-18T03:17:55.874Z,3.50
2023-05-18T03:20:23.804Z,3.20
2023-05-18T03:22:51.790Z,3.50
2023-05-18T03:25:19.939Z,3.00
2023-05-18T03:27:48.493Z,3.10
2023-05-18T03:30:16.486Z,2.70
2023-05-18T03:32:44.681Z,3.20
2023-05-18T03:35:13.734Z,3.80
2023-05-18T03:37:42.581Z,3.20
2023-05-18T03:40:16.280Z,3.30
2023-05-18T03:42:44.902Z,3.20
2023-05-18T03:45:13.695Z,3.50
2023-05-18T03:47:42.606Z,3.50
2023-05-18T03:50:11.126Z,3.90
2023-05-18T03:52:40.003Z,3.60
2023-05-18T03:55:08.719Z,3.40
2023-05-18T03:57:36.578Z,3.20
2023-05-18T04:00:13.272Z,3.50
2023-05-18T04:02:48.578Z,3.10
2023-05-18T04:05:18.196Z,3.60
2023-05-18T04:07:47.522Z,3.30
2023-05-18T04:10:17.192Z,3.30
2023-05-18T04:12:45.486Z,3.00
2023-05-18T04:15:16.019Z,3.20
2023-05-18T04:17:45.987Z,3.50
2023-05-18T04:20:14.707Z,3.30
2023-05-18T04:22:48.627Z,3.40
2023-05-18T04:25:18.761Z,3.30
2023-05-18T04:27:48.362Z,3.50
2023-05-18T04:30:18.883Z,2.90
2023-05-18T04:32:47.080Z,3.00
2023-05-18T04:35:15.365Z,4.10
2023-05-18T04:37:43.403Z,3.90
2023-05-18T04:40:17.711Z,3.70
2023-05-18T04:42:48.456Z,3.10
2023-05-18T04:45:26.345Z,3.60
2023-05-18T04:47:56.298Z,4.00
2023-05-18T04:50:24.318Z,3.80
2023-05-18T04:52:53.688Z,3.70
2023-05-18T04:55:26.015Z,3.20
2023-05-18T04:57:57.343Z,3.10
2023-05-18T05:00:29.274Z,3.20
2023-05-18T05:02:58.997Z,2.90
2023-05-18T05:05:27.782Z,3.30
2023-05-18T05:07:56.102Z,2.90
2023-05-18T05:10:24.358Z,3.30
2023-05-18T05:12:52.515Z,3.10
2023-05-18T05:15:21.089Z,3.10
2023-05-18T05:17:50.794Z,3.50
2023-05-18T05:20:19.209Z,3.70
2023-05-18T05:22:47.371Z,3.80
2023-05-18T05:25:18.070Z,3.30
2023-05-18T05:27:45.896Z,5.80
2023-05-18T05:30:14.341Z,4.50
2023-05-18T05:32:43.816Z,3.30
2023-05-18T05:35:11.857Z,5.50
2023-05-18T05:37:39.809Z,4.00
2023-05-18T05:40:09.934Z,3.60
2023-05-18T05:42:44.219Z,3.60
2023-05-18T05:45:13.278Z,4.00
2023-05-18T05:47:45.964Z,3.50
2023-05-18T05:50:14.900Z,3.70
2023-05-18T05:52:42.972Z,3.40
2023-05-18T05:55:11.590Z,3.60
2023-05-18T05:57:42.741Z,3.60
2023-05-18T06:00:13.157Z,3.70
2023-05-18T06:05:27.099Z,3.90
2023-05-18T06:07:57.272Z,3.30
2023-05-18T06:10:25.461Z,3.60
2023-05-18T06:12:53.613Z,4.00
2023-05-18T06:15:24.664Z,4.00
2023-05-18T06:17:52.529Z,3.90
2023-05-18T06:20:20.487Z,4.00
2023-05-18T06:22:48.390Z,4.30
2023-05-18T06:25:24.443Z,3.90
2023-05-18T06:28:10.552Z,3.60
2023-05-18T06:30:42.754Z,3.80
2023-05-18T06:33:37.202Z,3.20
2023-05-18T06:36:05.392Z,3.60
2023-05-18T06:38:33.395Z,3.40
2023-05-18T06:41:01.203Z,3.50
2023-05-18T06:43:29.275Z,3.80
2023-05-18T06:46:04.127Z,3.80
2023-05-18T06:48:40.749Z,4.20
2023-05-18T06:51:08.569Z,3.30
2023-05-18T06:53:36.583Z,3.60
2023-05-18T06:56:05.756Z,3.70
2023-05-18T06:58:34.044Z,4.00
2023-05-18T07:01:04.945Z,4.10
2023-05-18T07:03:33.050Z,3.90
2023-05-18T07:06:01.934Z,3.50
2023-05-18T07:08:29.722Z,3.60
2023-05-18T07:10:58.172Z,4.30
2023-05-18T07:13:26.288Z,4.10
2023-05-18T07:15:54.257Z,4.10
2023-05-18T07:18:22.595Z,4.40
2023-05-18T07:20:51.700Z,5.20
2023-05-18T07:23:19.811Z,5.10
2023-05-18T07:25:47.614Z,5.10
2023-05-18T07:28:15.787Z,5.10
2023-05-18T07:30:43.679Z,5.00
2023-05-18T07:33:11.503Z,5.40
2023-05-18T07:35:39.398Z,5.50
2023-05-18T07:38:07.468Z,5.60
2023-05-18T07:40:35.352Z,4.50
2023-05-18T07:43:03.138Z,4.30
2023-05-18T07:45:31.841Z,4.90
2023-05-18T07:48:00.398Z,5.10
2023-05-18T07:50:29.642Z,4.90
2023-05-18T07:52:57.549Z,4.80
2023-05-18T07:55:25.569Z,5.20
2023-05-18T07:57:53.379Z,5.30
2023-05-18T08:00:21.477Z,6.20
2023-05-18T08:02:49.815Z,5.10
2023-05-18T08:05:18.521Z,6.10
2023-05-18T08:07:46.311Z,5.60
2023-05-18T08:10:14.369Z,5.70
2023-05-18T08:12:42.196Z,5.20
2023-05-18T08:15:12.152Z,6.20
2023-05-18T08:17:40.056Z,5.50
2023-05-18T08:20:09.055Z,5.50
2023-05-18T08:22:36.850Z,4.90
2023-05-18T08:25:05.378Z,5.30
2023-05-18T08:27:33.146Z,5.90
2023-05-18T08:30:01.690Z,5.90
2023-05-18T08:32:29.644Z,5.20
2023-05-18T08:34:57.655Z,5.20
2023-05-18T08:37:29.484Z,5.70
2023-05-18T08:39:59.579Z,5.50
2023-05-18T08:42:46.048Z,6.10
2023-05-18T08:45:48.351Z,5.70
2023-05-18T08:48:16.899Z,5.90
2023-05-18T08:50:47.174Z,6.10
2023-05-18T08:53:18.595Z,5.70
2023-05-18T08:55:47.645Z,6.70
2023-05-18T08:58:20.061Z,6.80
2023-05-18T09:00:53.834Z,6.30
2023-05-18T09:03:22.993Z,7.20
2023-05-18T09:05:52.922Z,5.90
2023-05-18T09:08:21.062Z,5.80
2023-05-18T09:10:50.229Z,5.90
2023-05-18T09:13:22.785Z,5.20
2023-05-18T09:15:51.497Z,4.60
2023-05-18T09:18:21.874Z,4.60
2023-05-18T09:20:52.040Z,5.80
2023-05-18T09:23:20.105Z,5.40
2023-05-18T09:25:50.811Z,5.40
2023-05-18T09:28:35.242Z,5.20
2023-05-18T09:31:09.395Z,5.40
2023-05-18T09:33:39.872Z,5.60
2023-05-18T09:36:10.018Z,4.90
2023-05-18T09:38:40.517Z,4.80
2023-05-18T09:41:15.157Z,5.60
2023-05-18T09:43:44.678Z,5.30
2023-05-18T09:46:14.473Z,5.50
2023-05-18T09:48:54.221Z,5.50
2023-05-18T09:51:25.239Z,5.10
2023-05-18T09:53:59.158Z,5.10
2023-05-18T09:56:27.784Z,5.80
2023-05-18T09:58:55.787Z,5.40
2023-05-18T10:01:23.978Z,4.80
2023-05-18T10:03:53.321Z,4.50
2023-05-18T10:06:27.643Z,4.60
2023-05-18T10:09:01.738Z,4.90
2023-05-18T10:11:33.518Z,4.00
2023-05-18T10:14:01.420Z,4.70
2023-05-18T10:16:29.373Z,3.70
2023-05-18T10:18:57.588Z,3.40
2023-05-18T10:21:31.110Z,3.90
2023-05-18T10:24:02.423Z,3.40
2023-05-18T10:26:35.203Z,3.90
2023-05-18T10:29:04.884Z,4.30
2023-05-18T10:31:35.498Z,4.70
2023-05-18T10:34:04.754Z,4.40
2023-05-18T10:36:35.975Z,4.30
2023-05-18T10:39:04.927Z,3.40
2023-05-18T10:41:36.333Z,2.80
2023-05-18T10:44:06.126Z,3.50
2023-05-18T10:46:36.178Z,3.10
2023-05-18T10:49:05.838Z,3.30
2023-05-18T10:51:35.208Z,3.30
2023-05-18T10:54:13.702Z,3.40
2023-05-18T10:56:47.747Z,3.90
2023-05-18T10:59:18.427Z,3.90
2023-05-18T11:01:49.399Z,3.90
2023-05-18T11:04:32.583Z,4.20
2023-05-18T11:07:02.230Z,4.30
2023-05-18T11:09:30.449Z,4.40
2023-05-18T11:12:00.306Z,4.20
2023-05-18T11:14:31.119Z,4.60
2023-05-18T11:17:22.784Z,3.90
2023-05-18T11:20:09.221Z,3.60
2023-05-18T11:22:59.651Z,3.50
2023-05-18T11:25:27.528Z,3.30
2023-05-18T11:28:05.555Z,2.90
2023-05-18T11:30:33.578Z,3.00
2023-05-18T11:33:32.322Z,3.10
2023-05-18T11:36:09.483Z,3.90
2023-05-18T11:39:04.664Z,3.00
2023-05-18T11:41:44.683Z,3.70
2023-05-18T11:44:12.670Z,3.70
2023-05-18T11:46:58.894Z,3.50
2023-05-18T11:49:33.387Z,3.10
2023-05-18T11:52:25.841Z,3.30
2023-05-18T11:54:55.673Z,3.30
2023-05-18T11:57:40.820Z,3.30
2023-05-18T12:00:12.065Z,3.60
2023-05-18T12:02:46.653Z,3.20
2023-05-18T12:05:15.599Z,3.60
2023-05-18T12:07:44.998Z,3.10
2023-05-18T12:10:15.075Z,4.10
2023-05-18T12:12:43.929Z,3.90
2023-05-18T12:15:12.141Z,4.10
2023-05-18T12:17:47.966Z,4.00
2023-05-18T12:20:27.300Z,3.50
2023-05-18T12:22:55.944Z,4.00
2023-05-18T12:25:26.922Z,3.70
2023-05-18T12:27:56.861Z,3.80
2023-05-18T12:30:35.626Z,3.80
2023-05-18T12:33:04.760Z,3.70
2023-05-18T12:35:33.433Z,4.00
2023-05-18T12:38:02.501Z,4.00
2023-05-18T12:40:48.895Z,3.90
2023-05-18T12:43:16.932Z,3.80
2023-05-18T12:45:45.189Z,3.50
2023-05-18T12:48:14.988Z,3.60
2023-05-18T12:50:47.791Z,3.90
2023-05-18T12:53:16.872Z,3.20
2023-05-18T12:55:45.342Z,3.80
2023-05-18T12:58:19.760Z,3.40
2023-05-18T13:00:49.163Z,3.80
2023-05-18T13:03:22.197Z,3.60
2023-05-18T13:06:06.028Z,3.10
2023-05-18T13:08:35.973Z,3.80
2023-05-18T13:13:39.881Z,3.30
2023-05-18T13:16:16.652Z,3.70
2023-05-18T13:18:47.030Z,3.90
2023-05-18T13:21:15.022Z,3.60
2023-05-18T13:23:43.284Z,3.40
2023-05-18T13:26:11.179Z,3.40
2023-05-18T13:28:39.508Z,3.60
2023-05-18T13:31:07.331Z,3.50
2023-05-18T13:33:35.171Z,3.80
2023-05-18T13:36:03.179Z,3.40
2023-05-18T13:38:31.369Z,3.80
2023-05-18T13:40:59.426Z,3.40
2023-05-18T13:43:27.377Z,3.60
2023-05-18T13:45:55.547Z,3.90
2023-05-18T13:48:24.484Z,3.40
2023-05-18T13:50:52.315Z,3.90
2023-05-18T13:53:20.283Z,3.60
2023-05-18T13:55:48.716Z,3.90
2023-05-18T13:58:16.547Z,4.00
2023-05-18T14:00:44.740Z,3.60
2023-05-18T14:03:12.871Z,3.90
2023-05-18T14:05:41.125Z,4.30
2023-05-18T14:08:09.100Z,4.00
2023-05-18T14:10:36.879Z,4.00
2023-05-18T14:13:04.684Z,4.20
2023-05-18T14:15:32.477Z,4.00
2023-05-18T14:18:00.563Z,3.80
2023-05-18T14:20:29.331Z,4.00
2023-05-18T14:22:57.556Z,4.50
2023-05-18T14:25:25.550Z,4.20
2023-05-18T14:27:53.398Z,4.00
2023-05-18T14:30:21.330Z,4.00
2023-05-18T14:32:49.231Z,3.90
2023-05-18T14:35:17.082Z,4.30
2023-05-18T14:37:44.956Z,3.60
2023-05-18T14:40:13.033Z,4.00
2023-05-18T14:42:40.933Z,3.70
2023-05-18T14:45:09.703Z,3.90
2023-05-18T14:47:37.612Z,4.10
2023-05-18T14:50:06.231Z,3.40
2023-05-18T14:52:34.053Z,4.10
2023-05-18T14:55:01.863Z,4.10
2023-05-18T14:57:29.675Z,4.60
2023-05-18T14:59:58.292Z,4.30
2023-05-18T15:02:26.340Z,4.10
2023-05-18T15:04:54.211Z,3.80
2023-05-18T15:07:22.157Z,4.10
2023-05-18T15:09:49.993Z,4.00
2023-05-18T15:12:19.529Z,4.00
2023-05-18T15:14:47.309Z,5.60
2023-05-18T15:17:15.367Z,5.20
2023-05-18T15:19:43.496Z,4.20
2023-05-18T15:22:11.360Z,4.10
2023-05-18T15:24:39.196Z,4.20
2023-05-18T15:27:07.148Z,4.00
2023-05-18T15:29:35.859Z,4.30
2023-05-18T15:32:04.409Z,4.30
2023-05-18T15:34:33.500Z,7.00
2023-05-18T15:37:01.283Z,4.70
2023-05-18T15:39:29.101Z,3.90
2023-05-18T15:41:56.901Z,4.30
2023-05-18T15:44:24.794Z,4.20
2023-05-18T15:46:52.646Z,4.10
2023-05-18T15:49:21.746Z,4.60
2023-05-18T15:51:49.545Z,4.00
2023-05-18T15:54:18.213Z,4.00
2023-05-18T15:56:46.148Z,4.10
2023-05-18T15:59:14.021Z,4.20
2023-05-18T16:01:42.106Z,4.60
2023-05-18T16:04:10.002Z,4.40
2023-05-18T16:06:38.060Z,4.00
2023-05-18T16:09:06.081Z,4.40
2023-05-18T16:11:35.821Z,4.10
2023-05-18T16:14:04.900Z,4.00
2023-05-18T16:16:32.812Z,4.10
2023-05-18T16:19:00.833Z,4.30
2023-05-18T16:21:28.772Z,3.90
2023-05-18T16:23:56.843Z,4.40
2023-05-18T16:26:24.750Z,4.00
2023-05-18T16:28:52.622Z,3.80
2023-05-18T16:31:20.854Z,4.00
2023-05-18T16:33:48.750Z,4.00
2023-05-18T16:36:16.735Z,4.00
2023-05-18T16:38:44.633Z,4.00
2023-05-18T16:41:14.712Z,4.00
2023-05-18T16:43:43.578Z,4.00
2023-05-18T16:46:12.160Z,4.30
2023-05-18T16:48:40.090Z,4.10
2023-05-18T16:51:07.971Z,4.20
2023-05-18T16:53:37.126Z,3.80
2023-05-18T16:56:05.450Z,3.60
2023-05-18T16:58:33.261Z,4.00
2023-05-18T17:01:01.998Z,4.20
2023-05-18T17:03:29.945Z,4.00
2023-05-18T17:05:57.786Z,4.00
2023-05-18T17:08:25.846Z,4.00
2023-05-18T17:10:53.949Z,4.00
2023-05-18T17:13:21.840Z,4.20
2023-05-18T17:15:49.737Z,4.20
2023-05-18T17:18:17.572Z,4.40
2023-05-18T17:20:45.388Z,3.90
2023-05-18T17:23:17.418Z,4.20
2023-05-18T17:25:46.370Z,4.00
2023-05-18T17:28:16.425Z,4.10
2023-05-18T17:30:44.723Z,3.80
2023-05-18T17:33:12.706Z,4.00
2023-05-18T17:35:40.668Z,4.00
2023-05-18T17:38:08.483Z,4.20
2023-05-18T17:40:36.278Z,4.10
2023-05-18T17:43:04.200Z,4.00
2023-05-18T17:45:32.107Z,3.90
2023-05-18T17:47:59.956Z,4.20
2023-05-18T17:50:27.882Z,3.90
2023-05-18T17:52:55.712Z,4.10
2023-05-18T17:55:23.517Z,4.00
2023-05-18T17:57:51.642Z,4.00
2023-05-18T18:00:20.486Z,4.20
2023-05-18T18:02:48.373Z,4.30
2023-05-18T18:05:16.450Z,3.50
2023-05-18T18:07:44.287Z,3.90
2023-05-18T18:10:12.456Z,3.90
2023-05-18T18:12:40.530Z,3.80
2023-05-18T18:15:09.257Z,3.60
2023-05-18T18:17:37.334Z,4.10
2023-05-18T18:20:06.471Z,3.40
2023-05-18T18:22:35.874Z,4.00
2023-05-18T18:25:04.222Z,5.10
2023-05-18T18:27:32.417Z,5.30
2023-05-18T18:30:00.339Z,6.60
2023-05-18T18:32:28.293Z,5.90
2023-05-18T18:34:56.472Z,4.60
2023-05-18T18:37:24.392Z,4.90
2023-05-18T18:39:52.242Z,3.60
2023-05-18T18:42:21.514Z,3.60
2023-05-18T18:44:52.957Z,3.70
2023-05-18T18:47:21.568Z,3.80
2023-05-18T18:49:49.595Z,3.50
2023-05-18T18:52:18.360Z,3.40
2023-05-18T18:54:46.322Z,3.30
2023-05-18T18:57:14.161Z,3.50
2023-05-18T18:59:41.969Z,3.10
2023-05-18T19:02:09.916Z,3.50
2023-05-18T19:04:37.937Z,3.50
2023-05-18T19:07:06.003Z,3.20
2023-05-18T19:09:36.195Z,3.40
2023-05-18T19:12:04.531Z,3.60
2023-05-18T19:14:32.582Z,3.40
2023-05-18T19:17:00.534Z,3.30
2023-05-18T19:19:29.665Z,3.10
2023-05-18T19:21:58.373Z,3.30
2023-05-18T19:24:26.905Z,3.10
2023-05-18T19:26:54.853Z,3.40
2023-05-18T19:29:25.010Z,3.40
2023-05-18T19:31:55.344Z,3.00
2023-05-18T19:34:23.698Z,3.30
2023-05-18T19:36:52.410Z,3.40
2023-05-18T19:39:20.766Z,3.00
2023-05-18T19:41:49.660Z,3.20
2023-05-18T19:44:17.553Z,3.20
2023-05-18T19:46:46.467Z,2.80
2023-05-18T19:49:15.240Z,2.80
2023-05-18T19:51:43.258Z,3.10
2023-05-18T19:54:11.061Z,3.40
2023-05-18T19:56:39.395Z,3.40
2023-05-18T19:59:08.183Z,3.10
2023-05-18T20:01:37.047Z,3.20
2023-05-18T20:04:06.186Z,3.10
2023-05-18T20:06:34.627Z,3.10
2023-05-18T20:09:02.453Z,3.50
2023-05-18T20:11:30.643Z,3.50
2023-05-18T20:13:58.997Z,4.60
2023-05-18T20:16:29.580Z,4.10
2023-05-18T20:18:57.894Z,4.00
2023-05-18T20:21:26.584Z,4.10
2023-05-18T20:23:55.568Z,3.90
2023-05-18T20:26:27.212Z,3.70
2023-05-18T20:28:55.542Z,4.10
2023-05-18T20:31:23.596Z,3.50
2023-05-18T20:33:53.882Z,3.90
2023-05-18T20:36:21.747Z,4.40
2023-05-18T20:38:49.608Z,3.20
2023-05-18T20:41:17.848Z,3.90
2023-05-18T20:43:46.055Z,3.40
2023-05-18T20:46:14.042Z,3.80
2023-05-18T20:48:43.312Z,3.70
2023-05-18T20:51:15.587Z,4.10
2023-05-18T20:53:43.907Z,4.10
2023-05-18T20:56:12.796Z,3.90
2023-05-18T20:58:42.611Z,4.10
2023-05-18T21:01:10.837Z,4.80
2023-05-18T21:03:42.582Z,4.00
2023-05-18T21:06:12.785Z,3.80
2023-05-18T21:08:42.490Z,4.80
2023-05-18T21:11:10.380Z,5.00
2023-05-18T21:13:38.252Z,4.80
2023-05-18T21:16:08.342Z,5.10
2023-05-18T21:18:37.404Z,5.30
2023-05-18T21:21:05.519Z,5.40
2023-05-18T21:23:33.533Z,4.90
2023-05-18T21:26:01.423Z,6.00
2023-05-18T21:28:29.294Z,5.50
2023-05-18T21:30:57.198Z,5.50
2023-05-18T21:33:25.167Z,4.80
2023-05-18T21:35:53.135Z,4.70
2023-05-18T21:38:20.982Z,4.70
2023-05-18T21:40:48.802Z,4.20
2023-05-18T21:43:16.637Z,3.90
2023-05-18T21:45:44.521Z,4.00
2023-05-18T21:48:12.345Z,4.10
2023-05-18T21:50:40.213Z,4.50
2023-05-18T21:53:08.086Z,4.50
2023-05-18T21:55:35.940Z,4.70
2023-05-18T21:58:03.817Z,3.90
2023-05-18T22:00:31.794Z,3.80
2023-05-18T22:02:59.806Z,3.80
2023-05-18T22:05:27.791Z,3.70
2023-05-18T22:07:55.844Z,3.80
2023-05-18T22:10:23.657Z,3.70
2023-05-18T22:12:51.449Z,4.50
2023-05-18T22:15:22.209Z,3.80
2023-05-18T22:17:50.256Z,4.20
2023-05-18T22:20:18.137Z,3.80
2023-05-18T22:22:45.869Z,3.50
2023-05-18T22:25:14.102Z,4.10
2023-05-18T22:27:41.922Z,4.10
2023-05-18T22:30:11.130Z,3.90
2023-05-18T22:32:39.231Z,4.40
2023-05-18T22:35:08.699Z,4.70
2023-05-18T22:37:36.679Z,3.70
2023-05-18T22:40:06.522Z,4.60
2023-05-18T22:42:34.437Z,4.50
2023-05-18T22:45:03.734Z,3.80
2023-05-18T22:47:31.987Z,3.90
2023-05-18T22:49:59.816Z,4.00
2023-05-18T22:52:28.057Z,4.20
2023-05-18T22:54:56.004Z,4.10
2023-05-18T22:57:23.791Z,3.70
2023-05-18T22:59:51.583Z,3.50
2023-05-18T23:02:19.454Z,3.80
2023-05-18T23:04:47.312Z,4.10
2023-05-18T23:07:15.150Z,3.90
2023-05-18T23:09:42.971Z,3.90
2023-05-18T23:12:11.166Z,3.70
2023-05-18T23:14:39.437Z,3.60
2023-05-18T23:17:07.448Z,4.00
2023-05-18T23:19:36.226Z,3.30
2023-05-18T23:22:04.201Z,3.90
2023-05-18T23:24:32.028Z,4.00
2023-05-18T23:26:59.944Z,3.70
2023-05-18T23:29:27.780Z,3.90
2023-05-18T23:31:55.666Z,3.70
2023-05-18T23:34:23.749Z,3.50
2023-05-18T23:36:53.922Z,3.90
2023-05-18T23:39:22.481Z,3.90
2023-05-18T23:41:54.045Z,3.70
2023-05-18T23:44:22.229Z,3.80
2023-05-18T23:46:50.874Z,3.80
2023-05-18T23:49:19.313Z,3.60
2023-05-18T23:51:52.094Z,3.80
2023-05-18T23:54:21.065Z,3.40
2023-05-18T23:56:50.409Z,4.20
2023-05-18T23:59:18.933Z,3.60
